Time;durP1;ratioP1;P1;durP2;ratioP2;P2;SDS_P1;SDS_P2;PMS_P1;PMS_P2;Temp;Humidity;BMP_temperature;BMP_pressure;BME280_temperature;BME280_humidity;BME280_pressure;Samples;Min_cycle;Max_cycle;Signal;HPM_P1;HPM_P2
2023/06/14 00:01:25;;;;;;;3.30;3.00;;;;;;;;;;8319276;28;20891;-61
2023/06/14 00:05:25;;;;;;;8.40;3.15;;;;;;;;;;8321665;28;20031;-61
2023/06/14 00:09:25;;;;;;;3.03;2.58;;;;;;;;;;8323863;28;20681;-61
2023/06/14 00:13:25;;;;;;;4.07;3.00;;;;;;;;;;8322844;28;20028;-61
2023/06/14 00:17:30;;;;;;;4.72;3.05;;;;;;;;;;8321560;28;20108;-61
2023/06/14 00:21:30;;;;;;;6.53;3.60;;;;;;;;;;8325135;28;20013;-62
2023/06/14 00:25:31;;;;;;;11.27;3.28;;;;;;;;;;8324782;28;20060;-61
2023/06/14 00:29:31;;;;;;;3.78;2.80;;;;;;;;;;8321822;28;20488;-61
2023/06/14 00:33:31;;;;;;;5.25;2.97;;;;;;;;;;8322975;28;20041;-61
2023/06/14 00:37:31;;;;;;;4.32;3.03;;;;;;;;;;8324590;28;20031;-61
2023/06/14 00:41:31;;;;;;;6.45;3.40;;;;;;;;;;8323710;28;20122;-61
2023/06/14 00:45:35;;;;;;;4.13;3.38;;;;;;;;;;8322938;28;20152;-62
2023/06/14 00:49:35;;;;;;;3.67;3.10;;;;;;;;;;8320623;28;20560;-61
2023/06/14 00:53:36;;;;;;;3.60;3.30;;;;;;;;;;8323214;28;20086;-62
2023/06/14 00:57:37;;;;;;;5.47;2.90;;;;;;;;;;8319341;28;20484;-62
2023/06/14 01:01:38;;;;;;;4.80;3.50;;;;;;;;;;8319261;28;20037;-62
2023/06/14 01:05:39;;;;;;;3.53;2.97;;;;;;;;;;8321842;28;20067;-61
2023/06/14 01:09:48;;;;;;;5.22;3.50;;;;;;;;;;8319610;28;20020;-62
2023/06/14 01:13:49;;;;;;;5.32;3.20;;;;;;;;;;8318845;28;20028;-61
2023/06/14 01:17:51;;;;;;;5.30;3.50;;;;;;;;;;8318144;28;20514;-61
2023/06/14 01:21:52;;;;;;;4.32;3.20;;;;;;;;;;8319302;28;20032;-62
2023/06/14 01:25:52;;;;;;;3.53;3.20;;;;;;;;;;8319027;28;20025;-61
2023/06/14 01:29:56;;;;;;;4.50;3.20;;;;;;;;;;8318673;28;20716;-62
2023/06/14 01:38:34;;;;;;;5.57;3.40;;;;;;;;;;8312396;28;20607;-62
2023/06/14 01:42:36;;;;;;;4.07;3.30;;;;;;;;;;8319196;28;20570;-62
2023/06/14 01:46:36;;;;;;;4.63;3.30;;;;;;;;;;8316234;28;20047;-62
2023/06/14 01:50:36;;;;;;;3.80;3.15;;;;;;;;;;8321303;28;20021;-61
2023/06/14 01:54:41;;;;;;;4.95;3.25;;;;;;;;;;8318404;28;20639;-61
2023/06/14 01:58:41;;;;;;;5.20;3.33;;;;;;;;;;8315803;28;20728;-61
2023/06/14 02:02:42;;;;;;;3.57;3.20;;;;;;;;;;8318168;28;20139;-61
2023/06/14 02:06:42;;;;;;;4.32;3.10;;;;;;;;;;8316152;28;20434;-62
2023/06/14 02:10:42;;;;;;;5.13;3.10;;;;;;;;;;8318414;28;20092;-62
2023/06/14 02:14:44;;;;;;;3.53;3.10;;;;;;;;;;8317455;28;20025;-64
2023/06/14 02:18:45;;;;;;;3.40;3.10;;;;;;;;;;8317228;28;20796;-62
2023/06/14 02:22:45;;;;;;;7.82;3.33;;;;;;;;;;8318270;28;20036;-62
2023/06/14 02:26:45;;;;;;;3.77;3.00;;;;;;;;;;8316810;28;20452;-62
2023/06/14 02:30:45;;;;;;;4.78;3.40;;;;;;;;;;8318784;28;20264;-62
2023/06/14 02:34:49;;;;;;;3.40;3.10;;;;;;;;;;8320689;28;20744;-62
2023/06/14 02:38:49;;;;;;;4.03;2.90;;;;;;;;;;8315153;28;20124;-62
2023/06/14 02:42:49;;;;;;;4.78;3.15;;;;;;;;;;8318925;28;20337;-62
2023/06/14 02:46:50;;;;;;;3.35;3.05;;;;;;;;;;8318035;28;21061;-62
2023/06/14 02:50:51;;;;;;;6.43;3.35;;;;;;;;;;8319314;28;20021;-62
2023/06/14 02:54:51;;;;;;;4.10;3.13;;;;;;;;;;8319216;28;20017;-62
2023/06/14 02:58:53;;;;;;;5.80;3.05;;;;;;;;;;8318858;28;20024;-62
2023/06/14 03:02:54;;;;;;;8.25;3.10;;;;;;;;;;8318715;28;20405;-62
2023/06/14 03:06:54;;;;;;;6.28;2.97;;;;;;;;;;8317714;28;20017;-62
2023/06/14 03:10:56;;;;;;;4.43;3.07;;;;;;;;;;8320392;28;20029;-62
2023/06/14 03:14:56;;;;;;;4.88;2.92;;;;;;;;;;8318733;28;21208;-62
2023/06/14 03:18:57;;;;;;;4.50;2.75;;;;;;;;;;8316414;28;20539;-62
2023/06/14 03:22:57;;;;;;;4.10;2.80;;;;;;;;;;8318891;28;20057;-62
2023/06/14 03:26:57;;;;;;;6.45;3.42;;;;;;;;;;8315592;28;20323;-62
2023/06/14 03:30:57;;;;;;;4.95;2.85;;;;;;;;;;8316501;28;20383;-62
2023/06/14 03:34:57;;;;;;;4.30;3.00;;;;;;;;;;8321743;28;20033;-61
2023/06/14 03:38:57;;;;;;;3.50;2.88;;;;;;;;;;8320148;28;20967;-62
2023/06/14 03:42:58;;;;;;;3.58;2.90;;;;;;;;;;8323984;28;20025;-62
2023/06/14 03:46:58;;;;;;;3.92;2.90;;;;;;;;;;8321436;28;20135;-62
2023/06/14 03:50:58;;;;;;;3.07;2.70;;;;;;;;;;8323303;28;20028;-62
2023/06/14 03:55:00;;;;;;;3.50;2.80;;;;;;;;;;8319106;28;20065;-62
2023/06/14 03:59:00;;;;;;;3.38;2.80;;;;;;;;;;8322002;28;20029;-62
2023/06/14 04:03:00;;;;;;;5.83;3.17;;;;;;;;;;8322278;28;20047;-62
2023/06/14 04:07:03;;;;;;;4.53;2.65;;;;;;;;;;8321781;28;20033;-62
2023/06/14 04:11:03;;;;;;;3.83;3.00;;;;;;;;;;8321505;28;20025;-62
2023/06/14 04:15:05;;;;;;;5.00;3.03;;;;;;;;;;8320850;28;20784;-62
2023/06/14 04:19:05;;;;;;;4.35;2.90;;;;;;;;;;8323534;28;20135;-62
2023/06/14 04:23:12;;;;;;;3.38;2.90;;;;;;;;;;8321969;28;20067;-62
2023/06/14 04:27:14;;;;;;;7.25;3.10;;;;;;;;;;8323541;28;20028;-62
2023/06/14 04:31:16;;;;;;;5.03;2.92;;;;;;;;;;8320716;28;20044;-62
2023/06/14 04:35:16;;;;;;;3.25;2.95;;;;;;;;;;8320819;28;20048;-61
2023/06/14 04:39:21;;;;;;;6.15;2.90;;;;;;;;;;8323856;28;20020;-62
2023/06/14 04:43:27;;;;;;;5.68;2.90;;;;;;;;;;8322516;28;20037;-62
2023/06/14 04:47:29;;;;;;;4.53;2.85;;;;;;;;;;8321053;28;20102;-61
2023/06/14 04:51:30;;;;;;;4.63;2.42;;;;;;;;;;8319711;28;20028;-62
2023/06/14 04:55:32;;;;;;;4.65;2.72;;;;;;;;;;8315341;28;20025;-62
2023/06/14 04:59:35;;;;;;;5.22;2.80;;;;;;;;;;8317758;28;20029;-62
2023/06/14 05:03:35;;;;;;;3.67;2.60;;;;;;;;;;8318156;28;20041;-62
2023/06/14 05:07:36;;;;;;;4.50;2.63;;;;;;;;;;8316196;28;20493;-62
2023/06/14 05:11:36;;;;;;;6.38;3.20;;;;;;;;;;8318132;28;20036;-62
2023/06/14 05:15:36;;;;;;;4.05;2.90;;;;;;;;;;8318394;28;20037;-62
2023/06/14 05:19:36;;;;;;;7.70;3.00;;;;;;;;;;8319030;28;20036;-62
2023/06/14 05:23:36;;;;;;;3.70;2.40;;;;;;;;;;8319129;28;20056;-62
2023/06/14 05:27:37;;;;;;;4.43;2.80;;;;;;;;;;8318817;28;20836;-62
2023/06/14 05:31:37;;;;;;;2.90;2.50;;;;;;;;;;8319845;28;20805;-62
2023/06/14 05:35:37;;;;;;;9.07;2.85;;;;;;;;;;8318108;28;20025;-62
2023/06/14 05:39:38;;;;;;;7.37;2.80;;;;;;;;;;8312182;28;20032;-62
2023/06/14 05:43:38;;;;;;;3.50;2.83;;;;;;;;;;8318484;28;20807;-62
2023/06/14 05:47:38;;;;;;;3.63;3.08;;;;;;;;;;8319339;28;20029;-62
2023/06/14 05:51:38;;;;;;;8.30;2.95;;;;;;;;;;8317803;28;20036;-62
2023/06/14 05:55:38;;;;;;;7.03;2.70;;;;;;;;;;8314624;28;20660;-62
2023/06/14 05:59:39;;;;;;;3.33;2.70;;;;;;;;;;8319108;28;20029;-62
2023/06/14 06:04:04;;;;;;;9.90;2.80;;;;;;;;;;8308011;28;20075;-62
2023/06/14 06:08:48;;;;;;;6.07;2.72;;;;;;;;;;8308599;28;20041;-62
2023/06/14 06:12:59;;;;;;;5.25;3.00;;;;;;;;;;8273577;28;20123;-62
2023/06/14 06:17:27;;;;;;;9.88;3.20;;;;;;;;;;8256724;28;20037;-62
2023/06/14 06:21:46;;;;;;;9.63;2.70;;;;;;;;;;8278163;28;20033;-62
2023/06/14 06:25:57;;;;;;;9.05;3.03;;;;;;;;;;8307271;28;20032;-62
2023/06/14 06:30:33;;;;;;;4.28;2.63;;;;;;;;;;8299131;28;20060;-62
2023/06/14 06:34:48;;;;;;;7.50;2.85;;;;;;;;;;8300939;28;20040;-62
2023/06/14 06:39:03;;;;;;;5.28;2.60;;;;;;;;;;8305906;28;20108;-61
2023/06/14 06:47:39;;;;;;;4.38;2.72;;;;;;;;;;8289012;28;20568;-62
2023/06/14 06:52:11;;;;;;;7.65;2.67;;;;;;;;;;8309003;28;20067;-62
2023/06/14 06:56:12;;;;;;;6.05;2.40;;;;;;;;;;8305368;28;20459;-62
2023/06/14 07:00:34;;;;;;;;;;;;;;;;;;;;;
2023/06/14 07:09:47;;;;;;;3.50;2.50;;;;;;;;;;8308129;28;20591;-62
2023/06/14 07:13:47;;;;;;;4.20;2.50;;;;;;;;;;8302534;28;20029;-62
2023/06/14 07:17:47;;;;;;;10.05;2.70;;;;;;;;;;8310907;28;20183;-62
2023/06/14 07:21:47;;;;;;;6.65;2.50;;;;;;;;;;8307222;28;20032;-61
2023/06/14 07:31:02;;;;;;;4.85;2.45;;;;;;;;;;8178179;28;20037;-62
2023/06/14 07:35:03;;;;;;;8.63;2.70;;;;;;;;;;8191085;28;20045;-62
2023/06/14 07:39:52;;;;;;;6.10;2.27;;;;;;;;;;8189929;28;20276;-62
2023/06/14 07:43:32;;;;;;;20.75;3.17;;;;;;;;;;8186371;28;20758;-62
2023/06/14 07:47:32;;;;;;;2.60;2.15;;;;;;;;;;8254571;28;20076;-62
2023/06/14 07:51:58;;;;;;;4.57;2.47;;;;;;;;;;8311040;28;20029;-62
2023/06/14 07:56:37;;;;;;;5.13;2.30;;;;;;;;;;8309291;28;20029;-62
2023/06/14 08:00:47;;;;;;;5.95;2.50;;;;;;;;;;8243954;28;20029;-62
2023/06/14 08:05:31;;;;;;;3.83;2.35;;;;;;;;;;8285029;28;20145;-62
2023/06/14 08:14:27;;;;;;;4.78;2.40;;;;;;;;;;8214489;28;20042;-62
2023/06/14 08:18:59;;;;;;;6.55;2.20;;;;;;;;;;8230965;28;20042;-62
2023/06/14 08:23:18;;;;;;;9.63;1.92;;;;;;;;;;8274513;28;20037;-62
2023/06/14 08:28:02;;;;;;;3.55;2.20;;;;;;;;;;8277005;28;20539;-62
2023/06/14 08:31:53;;;;;;;4.65;1.92;;;;;;;;;;8281385;28;20077;-62
2023/06/14 08:40:52;;;;;;;6.90;2.03;;;;;;;;;;8300032;28;20561;-62
2023/06/14 08:49:40;;;;;;;4.45;2.10;;;;;;;;;;8310307;28;20075;-62
2023/06/14 08:54:11;;;;;;;;;;;;;;;;;;;;;
2023/06/14 08:58:14;;;;;;;2.80;2.00;;;;;;;;;;8308170;28;20143;-62
2023/06/14 09:02:29;;;;;;;5.32;1.92;;;;;;;;;;8297152;28;20075;-62
2023/06/14 09:06:58;;;;;;;3.38;2.05;;;;;;;;;;8310734;28;20628;-62
2023/06/14 09:11:25;;;;;;;10.30;2.10;;;;;;;;;;8316890;28;20887;-62
2023/06/14 09:15:40;;;;;;;1.48;1.38;;;;;;;;;;8309202;28;20065;-62
2023/06/14 09:20:28;;;;;;;5.97;1.90;;;;;;;;;;8299499;28;20083;-62
2023/06/14 09:24:26;;;;;;;2.50;1.60;;;;;;;;;;8305653;28;20045;-62
2023/06/14 09:28:27;;;;;;;4.67;1.80;;;;;;;;;;8315265;28;20035;-62
2023/06/14 09:32:27;;;;;;;3.90;1.73;;;;;;;;;;8318154;28;20284;-62
2023/06/14 09:36:31;;;;;;;3.63;1.87;;;;;;;;;;8319794;28;20059;-62
2023/06/14 09:40:33;;;;;;;5.80;1.60;;;;;;;;;;8317975;28;20523;-62
2023/06/14 09:44:34;;;;;;;2.67;1.65;;;;;;;;;;8318277;28;20033;-63
2023/06/14 09:48:34;;;;;;;2.53;1.93;;;;;;;;;;8319340;28;20104;-62
2023/06/14 09:52:34;;;;;;;1.67;1.58;;;;;;;;;;8320038;28;20130;-62
2023/06/14 09:56:37;;;;;;;3.13;1.60;;;;;;;;;;8313835;28;20025;-62
2023/06/14 10:00:38;;;;;;;1.30;1.20;;;;;;;;;;8317376;28;20044;-62
2023/06/14 10:04:39;;;;;;;5.60;1.65;;;;;;;;;;8314794;28;20818;-62
2023/06/14 10:08:40;;;;;;;3.63;1.50;;;;;;;;;;8313488;28;20091;-62
2023/06/14 10:12:40;;;;;;;2.20;1.70;;;;;;;;;;8316519;28;20024;-62
2023/06/14 10:16:46;;;;;;;5.75;1.70;;;;;;;;;;8315664;28;20037;-62
2023/06/14 10:20:52;;;;;;;1.70;1.60;;;;;;;;;;8318024;28;20740;-62
2023/06/14 10:24:52;;;;;;;7.80;1.55;;;;;;;;;;8306836;28;20730;-62
2023/06/14 10:28:57;;;;;;;2.67;1.65;;;;;;;;;;8303200;28;20116;-62
2023/06/14 10:33:08;;;;;;;4.00;1.50;;;;;;;;;;8303660;28;20234;-62
2023/06/14 10:37:11;;;;;;;1.70;1.60;;;;;;;;;;8307284;28;20036;-62
2023/06/14 10:41:12;;;;;;;3.90;1.63;;;;;;;;;;8307011;28;20035;-62
2023/06/14 10:45:13;;;;;;;2.87;1.50;;;;;;;;;;8314639;28;20028;-62
2023/06/14 10:49:18;;;;;;;2.90;1.38;;;;;;;;;;8317732;28;20044;-60
2023/06/14 10:53:23;;;;;;;1.73;1.52;;;;;;;;;;8320204;28;20087;-60
2023/06/14 10:57:23;;;;;;;2.20;1.50;;;;;;;;;;8318949;28;20032;-61
2023/06/14 11:01:40;;;;;;;5.00;1.37;;;;;;;;;;8318997;28;20155;-61
2023/06/14 11:06:00;;;;;;;4.30;1.40;;;;;;;;;;8320089;28;20017;-60
2023/06/14 11:10:01;;;;;;;4.43;1.38;;;;;;;;;;8319595;28;21036;-60
2023/06/14 11:14:02;;;;;;;3.37;1.60;;;;;;;;;;8318746;28;20717;-61
2023/06/14 11:18:03;;;;;;;2.90;1.50;;;;;;;;;;8317976;28;20603;-60
2023/06/14 11:22:03;;;;;;;2.60;1.73;;;;;;;;;;8318398;28;20414;-61
2023/06/14 11:26:06;;;;;;;1.63;1.40;;;;;;;;;;8319902;28;20029;-61
2023/06/14 11:30:07;;;;;;;2.97;1.30;;;;;;;;;;8317563;28;20040;-61
2023/06/14 11:34:07;;;;;;;1.87;1.40;;;;;;;;;;8321118;28;20029;-61
2023/06/14 11:38:09;;;;;;;1.57;1.33;;;;;;;;;;8334269;28;20119;-61
2023/06/14 11:42:13;;;;;;;1.40;1.30;;;;;;;;;;8319365;28;20029;-61
2023/06/14 11:46:15;;;;;;;3.72;1.38;;;;;;;;;;8317491;28;20076;-61
2023/06/14 11:50:15;;;;;;;1.40;1.30;;;;;;;;;;8315592;28;20028;-61
2023/06/14 11:54:16;;;;;;;3.57;1.43;;;;;;;;;;8319977;28;20021;-61
2023/06/14 11:58:16;;;;;;;5.18;1.50;;;;;;;;;;8316049;28;20102;-61
2023/06/14 12:02:17;;;;;;;2.03;1.23;;;;;;;;;;8312332;28;20036;-61
2023/06/14 12:06:25;;;;;;;2.00;1.30;;;;;;;;;;8318549;28;20036;-61
2023/06/14 12:10:26;;;;;;;1.88;1.25;;;;;;;;;;8314035;28;20036;-62
2023/06/14 12:14:31;;;;;;;3.10;1.20;;;;;;;;;;8316975;28;21078;-62
2023/06/14 12:18:34;;;;;;;2.58;1.30;;;;;;;;;;8311649;28;20099;-62
2023/06/14 12:22:34;;;;;;;1.42;1.10;;;;;;;;;;8312595;28;20024;-62
2023/06/14 12:26:37;;;;;;;3.40;1.30;;;;;;;;;;8311402;28;20035;-61
2023/06/14 12:30:37;;;;;;;1.30;1.10;;;;;;;;;;8306195;28;20110;-62
2023/06/14 12:34:38;;;;;;;1.65;1.27;;;;;;;;;;8311080;28;20026;-62
2023/06/14 12:38:38;;;;;;;5.40;1.30;;;;;;;;;;8311783;28;20016;-62
2023/06/14 12:42:38;;;;;;;1.53;1.27;;;;;;;;;;8320062;28;20119;-62
2023/06/14 12:46:39;;;;;;;1.90;1.23;;;;;;;;;;8314200;28;20098;-62
2023/06/14 12:50:39;;;;;;;2.80;1.10;;;;;;;;;;8317405;28;20282;-62
2023/06/14 12:54:40;;;;;;;3.13;1.10;;;;;;;;;;8317916;28;20032;-62
2023/06/14 12:58:41;;;;;;;2.63;1.20;;;;;;;;;;8315919;28;20017;-62
2023/06/14 13:02:41;;;;;;;4.03;1.40;;;;;;;;;;8313002;28;20148;-62
2023/06/14 13:06:41;;;;;;;2.25;1.60;;;;;;;;;;8313448;28;20354;-62
2023/06/14 13:10:41;;;;;;;1.37;1.27;;;;;;;;;;8308143;28;20025;-61
2023/06/14 13:14:41;;;;;;;3.10;1.30;;;;;;;;;;8313642;28;20033;-61
2023/06/14 13:18:42;;;;;;;2.13;1.20;;;;;;;;;;8307747;28;20037;-62
2023/06/14 13:22:42;;;;;;;2.05;1.40;;;;;;;;;;8310890;28;20036;-62
2023/06/14 13:26:43;;;;;;;1.57;1.33;;;;;;;;;;8307049;28;20049;-62
2023/06/14 13:30:43;;;;;;;3.43;1.30;;;;;;;;;;8310293;28;20040;-62
2023/06/14 13:34:43;;;;;;;1.70;1.60;;;;;;;;;;8309607;28;20163;-62
2023/06/14 13:38:44;;;;;;;1.85;1.35;;;;;;;;;;8309375;28;20024;-62
2023/06/14 13:42:46;;;;;;;1.17;1.15;;;;;;;;;;8309083;28;20039;-62
2023/06/14 13:46:46;;;;;;;1.55;1.45;;;;;;;;;;8301903;28;20045;-61
2023/06/14 13:50:47;;;;;;;2.20;1.40;;;;;;;;;;8305056;28;20300;-61
2023/06/14 13:54:48;;;;;;;2.85;1.30;;;;;;;;;;8305615;28;20279;-62
2023/06/14 13:58:48;;;;;;;2.85;1.50;;;;;;;;;;8310710;28;20051;-62
2023/06/14 14:02:50;;;;;;;3.30;1.60;;;;;;;;;;8309997;28;20213;-61
2023/06/14 14:06:50;;;;;;;1.70;1.35;;;;;;;;;;8311641;28;20039;-62
2023/06/14 14:10:50;;;;;;;1.40;1.30;;;;;;;;;;8309552;28;20109;-62
2023/06/14 14:14:51;;;;;;;4.40;1.50;;;;;;;;;;8309720;28;20086;-62
2023/06/14 14:18:51;;;;;;;4.93;1.65;;;;;;;;;;8309117;28;20044;-62
2023/06/14 14:22:51;;;;;;;1.63;1.50;;;;;;;;;;8310778;28;20832;-62
2023/06/14 14:26:53;;;;;;;2.88;1.50;;;;;;;;;;8310581;28;20937;-62
2023/06/14 14:30:53;;;;;;;2.08;1.58;;;;;;;;;;8306876;28;20705;-62
2023/06/14 14:34:54;;;;;;;1.83;1.57;;;;;;;;;;8309845;28;20416;-61
2023/06/14 14:38:54;;;;;;;2.93;1.60;;;;;;;;;;8307530;28;20275;-62
2023/06/14 14:42:54;;;;;;;4.07;1.57;;;;;;;;;;8314974;28;20059;-62
2023/06/14 14:46:55;;;;;;;3.03;1.60;;;;;;;;;;8313315;28;20037;-62
2023/06/14 14:50:55;;;;;;;3.00;1.50;;;;;;;;;;8313596;28;20024;-62
2023/06/14 14:54:56;;;;;;;2.27;1.50;;;;;;;;;;8314831;28;20010;-62
2023/06/14 14:58:56;;;;;;;1.88;1.60;;;;;;;;;;8313196;28;21085;-61
2023/06/14 15:02:56;;;;;;;2.22;1.52;;;;;;;;;;8310770;28;20033;-61
2023/06/14 15:06:57;;;;;;;2.90;1.87;;;;;;;;;;8313737;28;20021;-62
2023/06/14 15:10:57;;;;;;;1.75;1.55;;;;;;;;;;8313354;28;20021;-62
2023/06/14 15:14:57;;;;;;;2.53;1.93;;;;;;;;;;8313375;28;20608;-62
2023/06/14 15:18:57;;;;;;;2.33;1.65;;;;;;;;;;8312131;28;20279;-62
2023/06/14 15:22:59;;;;;;;1.80;1.70;;;;;;;;;;8312887;28;20075;-62
2023/06/14 15:26:59;;;;;;;1.77;1.50;;;;;;;;;;8307069;28;20283;-62
2023/06/14 15:31:00;;;;;;;2.47;1.67;;;;;;;;;;8312584;28;20598;-62
2023/06/14 15:35:00;;;;;;;2.70;1.65;;;;;;;;;;8311495;28;20279;-62
2023/06/14 15:39:00;;;;;;;2.15;1.70;;;;;;;;;;8309958;28;20110;-62
2023/06/14 15:43:00;;;;;;;2.78;1.60;;;;;;;;;;8310237;28;20037;-62
2023/06/14 15:47:01;;;;;;;2.92;1.65;;;;;;;;;;8306495;28;20563;-62
2023/06/14 15:51:01;;;;;;;2.85;1.85;;;;;;;;;;8309747;28;20056;-61
2023/06/14 15:55:01;;;;;;;5.47;1.80;;;;;;;;;;8306381;28;20480;-61
2023/06/14 15:59:02;;;;;;;2.55;1.98;;;;;;;;;;8316721;28;21596;-62
2023/06/14 16:03:02;;;;;;;1.83;1.70;;;;;;;;;;8311661;28;20029;-62
2023/06/14 16:07:03;;;;;;;3.03;1.80;;;;;;;;;;8310548;28;20027;-61
2023/06/14 16:11:03;;;;;;;3.40;1.90;;;;;;;;;;8306997;28;20858;-62
2023/06/14 16:15:03;;;;;;;3.55;1.90;;;;;;;;;;8316486;28;20025;-62
2023/06/14 16:19:04;;;;;;;2.80;1.98;;;;;;;;;;8313405;28;20021;-61
2023/06/14 16:23:05;;;;;;;3.55;2.20;;;;;;;;;;8312174;28;20027;-62
2023/06/14 16:27:06;;;;;;;5.18;2.00;;;;;;;;;;8315759;28;20029;-62
2023/06/14 16:31:06;;;;;;;5.88;1.92;;;;;;;;;;8307873;28;20462;-61
2023/06/14 16:35:06;;;;;;;3.20;2.08;;;;;;;;;;8309898;28;20147;-62
2023/06/14 16:39:07;;;;;;;4.47;1.73;;;;;;;;;;8307230;28;20111;-61
2023/06/14 16:43:07;;;;;;;4.93;1.90;;;;;;;;;;8305899;28;20059;-61
2023/06/14 16:47:08;;;;;;;1.88;1.70;;;;;;;;;;8307034;28;20102;-61
2023/06/14 16:51:08;;;;;;;3.35;2.00;;;;;;;;;;8309231;28;20267;-61
2023/06/14 16:55:08;;;;;;;3.93;1.90;;;;;;;;;;8307781;28;20486;-60
2023/06/14 16:59:09;;;;;;;1.95;1.85;;;;;;;;;;8301288;28;20115;-61
2023/06/14 17:03:09;;;;;;;1.88;1.77;;;;;;;;;;8307426;28;20041;-61
2023/06/14 17:07:09;;;;;;;1.87;1.70;;;;;;;;;;8302676;28;20072;-61
2023/06/14 17:11:10;;;;;;;4.15;1.75;;;;;;;;;;8304744;28;20086;-61
2023/06/14 17:15:10;;;;;;;1.85;1.60;;;;;;;;;;8304384;28;20395;-61
2023/06/14 17:19:10;;;;;;;2.27;1.60;;;;;;;;;;8303059;28;20033;-61
2023/06/14 17:23:10;;;;;;;2.95;1.80;;;;;;;;;;8305123;28;20284;-60
2023/06/14 17:27:11;;;;;;;1.80;1.70;;;;;;;;;;8304463;28;20047;-61
2023/06/14 17:31:11;;;;;;;3.17;1.87;;;;;;;;;;8302040;28;20594;-60
2023/06/14 17:35:13;;;;;;;1.60;1.48;;;;;;;;;;8301155;28;20349;-61
2023/06/14 17:39:14;;;;;;;1.80;1.60;;;;;;;;;;8303700;28;20039;-61
2023/06/14 17:43:14;;;;;;;2.67;1.55;;;;;;;;;;8304080;28;20588;-61
2023/06/14 17:47:15;;;;;;;7.03;1.60;;;;;;;;;;8305387;28;20172;-63
2023/06/14 17:51:15;;;;;;;2.45;1.60;;;;;;;;;;8306370;28;20127;-63
2023/06/14 17:55:15;;;;;;;1.70;1.60;;;;;;;;;;8302281;28;20521;-63
2023/06/14 17:59:16;;;;;;;2.83;1.80;;;;;;;;;;8297001;28;20115;-63
2023/06/14 18:03:17;;;;;;;2.30;1.60;;;;;;;;;;8303532;28;20032;-63
2023/06/14 18:07:17;;;;;;;1.50;1.40;;;;;;;;;;8304203;28;20048;-63
2023/06/14 18:11:17;;;;;;;2.97;1.80;;;;;;;;;;8304213;28;20025;-63
2023/06/14 18:15:18;;;;;;;3.75;1.52;;;;;;;;;;8305939;28;20445;-63
2023/06/14 18:19:19;;;;;;;9.85;1.95;;;;;;;;;;8301568;28;20056;-63
2023/06/14 18:23:19;;;;;;;2.63;1.60;;;;;;;;;;8305891;28;20225;-63
2023/06/14 18:27:19;;;;;;;2.00;1.70;;;;;;;;;;8311653;28;20456;-63
2023/06/14 18:31:19;;;;;;;4.05;1.60;;;;;;;;;;8302750;28;20037;-61
2023/06/14 18:35:20;;;;;;;2.97;1.63;;;;;;;;;;8307213;28;20032;-59
2023/06/14 18:39:20;;;;;;;1.55;1.45;;;;;;;;;;8303197;28;20653;-60
2023/06/14 18:43:20;;;;;;;1.85;1.50;;;;;;;;;;8306244;28;20363;-61
2023/06/14 18:47:20;;;;;;;5.65;1.98;;;;;;;;;;8306333;28;20059;-61
2023/06/14 18:51:20;;;;;;;2.97;1.63;;;;;;;;;;8302418;28;20528;-60
2023/06/14 18:55:23;;;;;;;1.50;1.40;;;;;;;;;;8301075;28;20394;-60
2023/06/14 18:59:23;;;;;;;5.85;1.63;;;;;;;;;;8301653;28;20044;-60
2023/06/14 19:03:23;;;;;;;2.72;1.70;;;;;;;;;;8303184;28;20103;-60
2023/06/14 19:07:23;;;;;;;3.53;1.80;;;;;;;;;;8303318;28;20345;-60
2023/06/14 19:11:23;;;;;;;1.48;1.38;;;;;;;;;;8311482;28;20072;-60
2023/06/14 19:15:24;;;;;;;1.60;1.50;;;;;;;;;;8307253;28;20034;-60
2023/06/14 19:19:24;;;;;;;1.98;1.40;;;;;;;;;;8304946;28;20036;-60
2023/06/14 19:23:25;;;;;;;3.38;1.50;;;;;;;;;;8308101;28;20020;-59
2023/06/14 19:27:25;;;;;;;1.80;1.58;;;;;;;;;;8306015;28;20557;-60
2023/06/14 19:31:25;;;;;;;6.97;1.70;;;;;;;;;;8303511;28;21243;-60
2023/06/14 19:35:26;;;;;;;1.65;1.55;;;;;;;;;;8300532;28;20104;-60
2023/06/14 19:39:26;;;;;;;3.97;1.70;;;;;;;;;;8313533;28;20565;-60
2023/06/14 19:43:26;;;;;;;1.50;1.40;;;;;;;;;;8316702;28;20698;-60
2023/06/14 19:47:26;;;;;;;2.47;1.57;;;;;;;;;;8316129;28;20041;-60
2023/06/14 19:51:27;;;;;;;2.47;1.58;;;;;;;;;;8314695;28;20021;-60
2023/06/14 19:55:27;;;;;;;2.83;1.80;;;;;;;;;;8312787;28;20032;-60
2023/06/14 19:59:27;;;;;;;2.10;1.48;;;;;;;;;;8315654;28;20021;-60
2023/06/14 20:03:27;;;;;;;2.38;1.75;;;;;;;;;;8308329;28;20049;-60
2023/06/14 20:07:27;;;;;;;2.00;1.83;;;;;;;;;;8311374;28;20036;-61
2023/06/14 20:11:28;;;;;;;3.87;1.60;;;;;;;;;;8315859;28;20025;-60
2023/06/14 20:15:28;;;;;;;3.15;1.60;;;;;;;;;;8307367;28;20029;-60
2023/06/14 20:19:28;;;;;;;1.73;1.60;;;;;;;;;;8313553;28;20188;-60
2023/06/14 20:23:28;;;;;;;3.65;2.00;;;;;;;;;;8310525;28;20033;-60
2023/06/14 20:27:28;;;;;;;1.88;1.67;;;;;;;;;;8315272;28;20025;-60
2023/06/14 20:31:29;;;;;;;1.97;1.77;;;;;;;;;;8318254;28;20041;-61
2023/06/14 20:35:29;;;;;;;1.60;1.50;;;;;;;;;;8314768;28;20028;-60
2023/06/14 20:39:29;;;;;;;2.13;1.73;;;;;;;;;;8316890;28;20817;-60
2023/06/14 20:43:30;;;;;;;2.67;1.70;;;;;;;;;;8317123;28;20318;-60
2023/06/14 20:47:30;;;;;;;1.90;1.70;;;;;;;;;;8313709;28;20056;-60
2023/06/14 20:51:30;;;;;;;1.83;1.73;;;;;;;;;;8317559;28;20271;-60
2023/06/14 20:55:32;;;;;;;2.50;1.60;;;;;;;;;;8315550;28;20027;-60
2023/06/14 20:59:32;;;;;;;2.15;1.70;;;;;;;;;;8316263;28;20518;-60
2023/06/14 21:03:32;;;;;;;2.35;1.70;;;;;;;;;;8315087;28;20029;-60
2023/06/14 21:07:32;;;;;;;2.97;1.90;;;;;;;;;;8313382;28;20382;-60
2023/06/14 21:11:32;;;;;;;5.40;2.10;;;;;;;;;;8316799;28;20922;-60
2023/06/14 21:15:33;;;;;;;2.87;1.80;;;;;;;;;;8313518;28;20094;-60
2023/06/14 21:19:33;;;;;;;4.53;1.80;;;;;;;;;;8314956;28;20053;-60
2023/06/14 21:23:33;;;;;;;3.42;1.80;;;;;;;;;;8314193;28;20094;-60
2023/06/14 21:27:36;;;;;;;3.17;1.70;;;;;;;;;;8311188;28;20029;-61
2023/06/14 21:31:36;;;;;;;2.58;2.03;;;;;;;;;;8316331;28;20591;-60
2023/06/14 21:35:36;;;;;;;2.10;1.90;;;;;;;;;;8313603;28;20158;-61
2023/06/14 21:39:38;;;;;;;3.13;1.63;;;;;;;;;;8312807;28;20039;-60
2023/06/14 21:43:38;;;;;;;2.33;1.90;;;;;;;;;;8315384;28;20340;-60
2023/06/14 21:47:39;;;;;;;3.35;1.60;;;;;;;;;;8314341;28;20049;-60
2023/06/14 21:51:39;;;;;;;2.20;1.90;;;;;;;;;;8314977;28;20029;-60
2023/06/14 21:55:39;;;;;;;3.00;2.00;;;;;;;;;;8314986;28;20165;-61
2023/06/14 21:59:40;;;;;;;2.50;1.83;;;;;;;;;;8314120;28;20025;-60
2023/06/14 22:03:40;;;;;;;2.07;1.70;;;;;;;;;;8310587;28;20102;-60
2023/06/14 22:07:40;;;;;;;3.72;1.80;;;;;;;;;;8305733;28;20037;-60
2023/06/14 22:11:41;;;;;;;3.03;1.65;;;;;;;;;;8315485;28;20029;-60
2023/06/14 22:15:45;;;;;;;4.18;1.80;;;;;;;;;;8310683;28;20048;-60
2023/06/14 22:19:49;;;;;;;4.90;1.92;;;;;;;;;;8312311;28;20062;-60
2023/06/14 22:23:50;;;;;;;4.10;1.73;;;;;;;;;;8313553;28;20037;-60
2023/06/14 22:27:51;;;;;;;2.90;1.83;;;;;;;;;;8310792;28;20071;-60
2023/06/14 22:31:52;;;;;;;1.70;1.60;;;;;;;;;;8315571;28;20033;-60
2023/06/14 22:35:52;;;;;;;5.40;1.83;;;;;;;;;;8313182;28;20577;-60
2023/06/14 22:39:52;;;;;;;1.80;1.63;;;;;;;;;;8312382;28;20488;-60
2023/06/14 22:43:52;;;;;;;3.63;1.80;;;;;;;;;;8312885;28;20029;-60
2023/06/14 22:47:53;;;;;;;1.95;1.73;;;;;;;;;;8306893;28;20075;-60
2023/06/14 22:51:55;;;;;;;2.55;1.90;;;;;;;;;;8313072;28;20029;-60
2023/06/14 22:55:56;;;;;;;2.20;1.77;;;;;;;;;;8309106;28;20107;-60
2023/06/14 22:59:56;;;;;;;2.23;1.67;;;;;;;;;;8311998;28;20020;-60
2023/06/14 23:03:56;;;;;;;2.97;1.70;;;;;;;;;;8309040;28;20160;-60
2023/06/14 23:07:57;;;;;;;2.38;1.70;;;;;;;;;;8309856;28;20326;-60
2023/06/14 23:12:00;;;;;;;1.80;1.70;;;;;;;;;;8313256;28;20115;-60
2023/06/14 23:16:00;;;;;;;5.30;1.70;;;;;;;;;;8311476;28;20123;-60
2023/06/14 23:20:06;;;;;;;1.90;1.70;;;;;;;;;;8311337;28;20029;-60
2023/06/14 23:24:07;;;;;;;2.00;1.80;;;;;;;;;;8316268;28;20029;-60
2023/06/14 23:28:08;;;;;;;3.92;1.90;;;;;;;;;;8311502;28;20040;-60
2023/06/14 23:32:09;;;;;;;2.53;1.92;;;;;;;;;;8316033;28;20079;-60
2023/06/14 23:36:09;;;;;;;2.03;1.80;;;;;;;;;;8314573;28;20029;-60
2023/06/14 23:40:10;;;;;;;4.03;1.80;;;;;;;;;;8312371;28;20044;-60
2023/06/14 23:44:11;;;;;;;3.40;1.88;;;;;;;;;;8317387;28;20135;-61
2023/06/14 23:48:11;;;;;;;2.33;1.98;;;;;;;;;;8313701;28;20515;-60
2023/06/14 23:52:14;;;;;;;3.45;1.92;;;;;;;;;;8320242;28;20041;-60
2023/06/14 23:56:20;;;;;;;3.50;1.80;;;;;;;;;;8322116;28;20032;-60
